Augusta, Missouri
Current Conditions -  °F | °C
As of 10:15 PM on Saturday 22 Nov 2014 (Local Time) from KFYG Reporting Station
Overcast Overcast  
Wind Chill: 54°   Ceiling: 7000
Heat Index: 54°   Visibility: 10mi
Dew Point: 50°   Wind: 6mph
Humidity: 88%   Direction: 130°SE
Pressure: 29.86"   Gusts: NA
Location:  38.57°N, 90.88°W
Report Text: KFYG 230415Z AUTO 13005KT 10SM FEW021 BKN070 OVC085 12/10 A2986 RMK AO2
Loading
Personal Weather Stations






























Interactive Weather Map New forecast layout! Learn more

10-Day Weather Forecast

Advertisements
Track Severe Weather on mobile